sensor_id;sensor_type;location;lat;lon;timestamp;P1;durP1;ratioP1;P2;durP2;ratioP2
41923;SDS011;27613;48.116;11.656;2023-01-01T00:00:56;196.93;;;127.07;;
41923;SDS011;27613;48.116;11.656;2023-01-01T00:03:22;156.68;;;109.15;;
41923;SDS011;27613;48.116;11.656;2023-01-01T00:05:47;179.35;;;109.53;;
41923;SDS011;27613;48.116;11.656;2023-01-01T00:08:13;150.05;;;100.63;;
41923;SDS011;27613;48.116;11.656;2023-01-01T00:10:38;142.85;;;88.93;;
41923;SDS011;27613;48.116;11.656;2023-01-01T00:13:04;137.35;;;85.55;;
41923;SDS011;27613;48.116;11.656;2023-01-01T00:15:29;117.82;;;79.22;;
41923;SDS011;27613;48.116;11.656;2023-01-01T00:17:55;116.85;;;78.35;;
41923;SDS011;27613;48.116;11.656;2023-01-01T00:20:22;139.77;;;79.25;;
41923;SDS011;27613;48.116;11.656;2023-01-01T00:22:47;106.50;;;72.22;;
41923;SDS011;27613;48.116;11.656;2023-01-01T00:25:13;112.13;;;63.80;;
41923;SDS011;27613;48.116;11.656;2023-01-01T00:27:39;93.90;;;59.78;;
41923;SDS011;27613;48.116;11.656;2023-01-01T00:30:06;90.80;;;61.05;;
41923;SDS011;27613;48.116;11.656;2023-01-01T00:32:32;99.13;;;61.00;;
41923;SDS011;27613;48.116;11.656;2023-01-01T00:34:58;90.82;;;62.03;;
41923;SDS011;27613;48.116;11.656;2023-01-01T00:37:23;83.28;;;60.38;;
41923;SDS011;27613;48.116;11.656;2023-01-01T00:39:49;96.30;;;61.88;;
41923;SDS011;27613;48.116;11.656;2023-01-01T00:42:15;88.10;;;61.45;;
41923;SDS011;27613;48.116;11.656;2023-01-01T00:44:40;100.80;;;63.65;;
41923;SDS011;27613;48.116;11.656;2023-01-01T00:47:06;92.50;;;65.47;;
41923;SDS011;27613;48.116;11.656;2023-01-01T00:49:31;106.43;;;68.25;;
41923;SDS011;27613;48.116;11.656;2023-01-01T00:51:57;109.45;;;67.07;;
41923;SDS011;27613;48.116;11.656;2023-01-01T00:54:22;92.50;;;63.13;;
41923;SDS011;27613;48.116;11.656;2023-01-01T00:56:49;105.90;;;66.85;;
41923;SDS011;27613;48.116;11.656;2023-01-01T00:59:15;108.53;;;62.50;;
41923;SDS011;27613;48.116;11.656;2023-01-01T01:01:40;98.30;;;59.38;;
41923;SDS011;27613;48.116;11.656;2023-01-01T01:04:06;98.30;;;63.85;;
41923;SDS011;27613;48.116;11.656;2023-01-01T01:06:33;89.22;;;55.55;;
41923;SDS011;27613;48.116;11.656;2023-01-01T01:08:59;83.40;;;52.30;;
41923;SDS011;27613;48.116;11.656;2023-01-01T01:11:25;101.72;;;59.50;;
41923;SDS011;27613;48.116;11.656;2023-01-01T01:13:51;100.53;;;67.22;;
41923;SDS011;27613;48.116;11.656;2023-01-01T01:16:20;91.90;;;62.63;;
41923;SDS011;27613;48.116;11.656;2023-01-01T01:18:50;96.40;;;61.35;;
41923;SDS011;27613;48.116;11.656;2023-01-01T01:21:18;87.05;;;55.38;;
41923;SDS011;27613;48.116;11.656;2023-01-01T01:23:45;79.78;;;53.13;;
41923;SDS011;27613;48.116;11.656;2023-01-01T01:26:15;72.47;;;47.65;;
41923;SDS011;27613;48.116;11.656;2023-01-01T01:28:42;63.63;;;43.50;;
41923;SDS011;27613;48.116;11.656;2023-01-01T01:31:08;64.82;;;42.25;;
41923;SDS011;27613;48.116;11.656;2023-01-01T01:33:34;66.07;;;42.17;;
41923;SDS011;27613;48.116;11.656;2023-01-01T01:36:01;63.13;;;42.83;;
41923;SDS011;27613;48.116;11.656;2023-01-01T01:38:27;57.38;;;34.30;;
41923;SDS011;27613;48.116;11.656;2023-01-01T01:40:53;52.83;;;36.15;;
41923;SDS011;27613;48.116;11.656;2023-01-01T01:46:16;46.17;;;29.02;;
41923;SDS011;27613;48.116;11.656;2023-01-01T01:48:43;39.38;;;23.70;;
41923;SDS011;27613;48.116;11.656;2023-01-01T01:51:12;32.60;;;23.17;;
41923;SDS011;27613;48.116;11.656;2023-01-01T01:53:42;27.52;;;19.92;;
41923;SDS011;27613;48.116;11.656;2023-01-01T01:56:14;27.98;;;16.92;;
41923;SDS011;27613;48.116;11.656;2023-01-01T01:58:46;22.35;;;14.98;;
41923;SDS011;27613;48.116;11.656;2023-01-01T02:01:12;22.75;;;12.32;;
41923;SDS011;27613;48.116;11.656;2023-01-01T02:06:14;15.23;;;9.32;;
41923;SDS011;27613;48.116;11.656;2023-01-01T02:08:40;17.98;;;8.45;;
41923;SDS011;27613;48.116;11.656;2023-01-01T02:11:05;10.35;;;7.57;;
41923;SDS011;27613;48.116;11.656;2023-01-01T02:13:31;9.13;;;6.47;;
41923;SDS011;27613;48.116;11.656;2023-01-01T02:16:03;9.80;;;6.60;;
41923;SDS011;27613;48.116;11.656;2023-01-01T02:18:49;11.93;;;6.95;;
41923;SDS011;27613;48.116;11.656;2023-01-01T02:21:24;12.00;;;5.60;;
41923;SDS011;27613;48.116;11.656;2023-01-01T02:23:57;7.78;;;5.40;;
41923;SDS011;27613;48.116;11.656;2023-01-01T02:29:41;6.90;;;5.22;;
41923;SDS011;27613;48.116;11.656;2023-01-01T02:32:11;5.93;;;4.50;;
41923;SDS011;27613;48.116;11.656;2023-01-01T02:34:54;7.07;;;4.50;;
41923;SDS011;27613;48.116;11.656;2023-01-01T02:37:46;6.63;;;4.45;;
41923;SDS011;27613;48.116;11.656;2023-01-01T02:40:14;6.38;;;4.63;;
41923;SDS011;27613;48.116;11.656;2023-01-01T02:42:42;6.43;;;4.60;;
41923;SDS011;27613;48.116;11.656;2023-01-01T02:45:09;11.65;;;4.53;;
41923;SDS011;27613;48.116;11.656;2023-01-01T02:47:35;7.60;;;4.28;;
41923;SDS011;27613;48.116;11.656;2023-01-01T02:50:04;5.18;;;4.00;;
41923;SDS011;27613;48.116;11.656;2023-01-01T02:55:13;9.25;;;4.65;;
41923;SDS011;27613;48.116;11.656;2023-01-01T03:04:05;9.23;;;4.63;;
41923;SDS011;27613;48.116;11.656;2023-01-01T03:06:49;9.02;;;3.53;;
41923;SDS011;27613;48.116;11.656;2023-01-01T03:09:31;6.70;;;4.07;;
41923;SDS011;27613;48.116;11.656;2023-01-01T03:15:06;6.45;;;4.20;;
41923;SDS011;27613;48.116;11.656;2023-01-01T03:17:48;5.95;;;4.00;;
41923;SDS011;27613;48.116;11.656;2023-01-01T03:20:16;6.63;;;4.55;;
41923;SDS011;27613;48.116;11.656;2023-01-01T03:22:46;7.95;;;4.40;;
41923;SDS011;27613;48.116;11.656;2023-01-01T03:25:15;6.25;;;4.28;;
41923;SDS011;27613;48.116;11.656;2023-01-01T03:30:16;6.45;;;4.75;;
41923;SDS011;27613;48.116;11.656;2023-01-01T03:35:24;8.75;;;4.68;;
41923;SDS011;27613;48.116;11.656;2023-01-01T03:38:04;7.55;;;5.13;;
41923;SDS011;27613;48.116;11.656;2023-01-01T03:40:35;7.65;;;4.68;;
41923;SDS011;27613;48.116;11.656;2023-01-01T03:43:07;7.38;;;5.05;;
41923;SDS011;27613;48.116;11.656;2023-01-01T03:45:40;7.13;;;4.43;;
41923;SDS011;27613;48.116;11.656;2023-01-01T03:48:08;11.93;;;5.38;;
41923;SDS011;27613;48.116;11.656;2023-01-01T03:50:40;7.15;;;5.20;;
41923;SDS011;27613;48.116;11.656;2023-01-01T03:55:58;10.25;;;5.57;;
41923;SDS011;27613;48.116;11.656;2023-01-01T03:58:32;7.40;;;5.15;;
41923;SDS011;27613;48.116;11.656;2023-01-01T04:01:25;7.35;;;5.00;;
41923;SDS011;27613;48.116;11.656;2023-01-01T04:03:56;8.30;;;5.20;;
41923;SDS011;27613;48.116;11.656;2023-01-01T04:06:24;9.18;;;5.18;;
41923;SDS011;27613;48.116;11.656;2023-01-01T04:08:50;8.25;;;5.57;;
41923;SDS011;27613;48.116;11.656;2023-01-01T04:11:22;10.52;;;5.78;;
41923;SDS011;27613;48.116;11.656;2023-01-01T04:14:10;6.25;;;4.63;;
41923;SDS011;27613;48.116;11.656;2023-01-01T04:16:35;8.93;;;5.03;;
41923;SDS011;27613;48.116;11.656;2023-01-01T04:19:01;9.73;;;5.55;;
41923;SDS011;27613;48.116;11.656;2023-01-01T04:21:26;9.32;;;5.30;;
41923;SDS011;27613;48.116;11.656;2023-01-01T04:23:52;9.52;;;5.70;;
41923;SDS011;27613;48.116;11.656;2023-01-01T04:26:17;8.63;;;5.90;;
41923;SDS011;27613;48.116;11.656;2023-01-01T04:28:43;7.43;;;4.78;;
41923;SDS011;27613;48.116;11.656;2023-01-01T04:31:09;7.70;;;5.00;;
41923;SDS011;27613;48.116;11.656;2023-01-01T04:33:35;6.38;;;4.47;;
41923;SDS011;27613;48.116;11.656;2023-01-01T04:36:05;6.10;;;4.10;;
41923;SDS011;27613;48.116;11.656;2023-01-01T04:38:35;6.80;;;5.10;;
41923;SDS011;27613;48.116;11.656;2023-01-01T04:41:02;10.40;;;5.70;;
41923;SDS011;27613;48.116;11.656;2023-01-01T04:43:28;7.80;;;5.45;;
41923;SDS011;27613;48.116;11.656;2023-01-01T04:45:55;8.63;;;5.18;;
41923;SDS011;27613;48.116;11.656;2023-01-01T04:48:22;7.38;;;5.38;;
41923;SDS011;27613;48.116;11.656;2023-01-01T04:50:57;7.53;;;5.03;;
41923;SDS011;27613;48.116;11.656;2023-01-01T04:53:25;8.20;;;4.65;;
41923;SDS011;27613;48.116;11.656;2023-01-01T04:55:54;7.93;;;4.97;;
41923;SDS011;27613;48.116;11.656;2023-01-01T04:58:19;7.55;;;5.05;;
41923;SDS011;27613;48.116;11.656;2023-01-01T05:00:50;7.97;;;4.70;;
41923;SDS011;27613;48.116;11.656;2023-01-01T05:03:16;7.53;;;5.00;;
41923;SDS011;27613;48.116;11.656;2023-01-01T05:05:42;6.32;;;4.30;;
41923;SDS011;27613;48.116;11.656;2023-01-01T05:08:08;7.68;;;4.97;;
41923;SDS011;27613;48.116;11.656;2023-01-01T05:10:33;6.05;;;3.97;;
41923;SDS011;27613;48.116;11.656;2023-01-01T05:12:59;5.60;;;3.80;;
41923;SDS011;27613;48.116;11.656;2023-01-01T05:15:25;5.20;;;3.72;;
41923;SDS011;27613;48.116;11.656;2023-01-01T05:17:50;5.68;;;3.70;;
41923;SDS011;27613;48.116;11.656;2023-01-01T05:20:17;4.70;;;3.38;;
41923;SDS011;27613;48.116;11.656;2023-01-01T05:22:44;5.60;;;3.50;;
41923;SDS011;27613;48.116;11.656;2023-01-01T05:25:11;4.13;;;2.80;;
41923;SDS011;27613;48.116;11.656;2023-01-01T05:27:36;6.90;;;3.05;;
41923;SDS011;27613;48.116;11.656;2023-01-01T05:30:02;10.07;;;3.67;;
41923;SDS011;27613;48.116;11.656;2023-01-01T05:32:27;4.35;;;3.03;;
41923;SDS011;27613;48.116;11.656;2023-01-01T05:34:53;6.47;;;3.67;;
41923;SDS011;27613;48.116;11.656;2023-01-01T05:37:20;5.28;;;2.25;;
41923;SDS011;27613;48.116;11.656;2023-01-01T05:39:45;4.32;;;2.38;;
41923;SDS011;27613;48.116;11.656;2023-01-01T05:42:12;3.88;;;2.35;;
41923;SDS011;27613;48.116;11.656;2023-01-01T05:44:39;4.50;;;2.83;;
41923;SDS011;27613;48.116;11.656;2023-01-01T05:47:05;3.88;;;2.40;;
41923;SDS011;27613;48.116;11.656;2023-01-01T05:49:30;4.63;;;2.40;;
41923;SDS011;27613;48.116;11.656;2023-01-01T05:51:56;3.55;;;2.42;;
41923;SDS011;27613;48.116;11.656;2023-01-01T05:54:21;3.42;;;2.33;;
41923;SDS011;27613;48.116;11.656;2023-01-01T05:56:47;3.47;;;2.30;;
41923;SDS011;27613;48.116;11.656;2023-01-01T05:59:12;4.32;;;2.03;;
41923;SDS011;27613;48.116;11.656;2023-01-01T06:01:38;3.22;;;2.13;;
41923;SDS011;27613;48.116;11.656;2023-01-01T06:04:04;3.78;;;2.38;;
41923;SDS011;27613;48.116;11.656;2023-01-01T06:06:30;4.28;;;2.10;;
41923;SDS011;27613;48.116;11.656;2023-01-01T06:08:57;2.50;;;1.70;;
41923;SDS011;27613;48.116;11.656;2023-01-01T06:11:25;3.00;;;1.88;;
41923;SDS011;27613;48.116;11.656;2023-01-01T06:13:52;4.35;;;2.03;;
41923;SDS011;27613;48.116;11.656;2023-01-01T06:16:18;2.90;;;1.98;;
41923;SDS011;27613;48.116;11.656;2023-01-01T06:18:44;3.05;;;1.80;;
41923;SDS011;27613;48.116;11.656;2023-01-01T06:21:11;1.95;;;1.63;;
41923;SDS011;27613;48.116;11.656;2023-01-01T06:23:37;4.40;;;2.03;;
41923;SDS011;27613;48.116;11.656;2023-01-01T06:26:13;3.17;;;1.92;;
41923;SDS011;27613;48.116;11.656;2023-01-01T06:28:40;3.58;;;2.30;;
41923;SDS011;27613;48.116;11.656;2023-01-01T06:31:08;3.20;;;1.95;;
41923;SDS011;27613;48.116;11.656;2023-01-01T06:33:35;5.95;;;2.17;;
41923;SDS011;27613;48.116;11.656;2023-01-01T06:36:03;5.78;;;2.20;;
41923;SDS011;27613;48.116;11.656;2023-01-01T06:38:33;2.53;;;1.75;;
41923;SDS011;27613;48.116;11.656;2023-01-01T06:41:05;3.15;;;1.77;;
41923;SDS011;27613;48.116;11.656;2023-01-01T06:43:34;2.42;;;1.50;;
41923;SDS011;27613;48.116;11.656;2023-01-01T06:48:35;3.17;;;1.92;;
41923;SDS011;27613;48.116;11.656;2023-01-01T06:51:08;5.85;;;1.83;;
41923;SDS011;27613;48.116;11.656;2023-01-01T06:53:35;2.90;;;2.13;;
41923;SDS011;27613;48.116;11.656;2023-01-01T06:56:00;4.13;;;2.55;;
41923;SDS011;27613;48.116;11.656;2023-01-01T06:58:26;4.50;;;2.30;;
41923;SDS011;27613;48.116;11.656;2023-01-01T07:00:52;3.28;;;2.22;;
41923;SDS011;27613;48.116;11.656;2023-01-01T07:03:17;3.33;;;2.00;;
41923;SDS011;27613;48.116;11.656;2023-01-01T07:05:43;3.67;;;2.25;;
41923;SDS011;27613;48.116;11.656;2023-01-01T07:08:08;2.78;;;1.88;;
41923;SDS011;27613;48.116;11.656;2023-01-01T07:10:34;2.33;;;1.75;;
41923;SDS011;27613;48.116;11.656;2023-01-01T07:13:00;4.00;;;2.28;;
41923;SDS011;27613;48.116;11.656;2023-01-01T07:15:25;3.05;;;1.88;;
41923;SDS011;27613;48.116;11.656;2023-01-01T07:17:51;2.35;;;1.77;;
41923;SDS011;27613;48.116;11.656;2023-01-01T07:20:17;3.85;;;2.28;;
41923;SDS011;27613;48.116;11.656;2023-01-01T07:22:42;9.10;;;2.38;;
41923;SDS011;27613;48.116;11.656;2023-01-01T07:25:09;3.30;;;2.22;;
41923;SDS011;27613;48.116;11.656;2023-01-01T07:27:38;4.65;;;2.05;;
41923;SDS011;27613;48.116;11.656;2023-01-01T07:30:04;3.20;;;2.08;;
41923;SDS011;27613;48.116;11.656;2023-01-01T07:32:30;2.90;;;2.03;;
41923;SDS011;27613;48.116;11.656;2023-01-01T07:34:55;2.47;;;1.98;;
41923;SDS011;27613;48.116;11.656;2023-01-01T07:37:21;3.88;;;2.20;;
41923;SDS011;27613;48.116;11.656;2023-01-01T07:39:50;3.50;;;2.15;;
41923;SDS011;27613;48.116;11.656;2023-01-01T07:42:15;3.47;;;2.25;;
41923;SDS011;27613;48.116;11.656;2023-01-01T07:44:41;3.10;;;2.17;;
41923;SDS011;27613;48.116;11.656;2023-01-01T07:47:17;3.22;;;2.33;;
41923;SDS011;27613;48.116;11.656;2023-01-01T07:49:46;3.85;;;2.10;;
41923;SDS011;27613;48.116;11.656;2023-01-01T07:52:11;4.20;;;2.30;;
41923;SDS011;27613;48.116;11.656;2023-01-01T07:54:37;3.97;;;2.45;;
41923;SDS011;27613;48.116;11.656;2023-01-01T07:57:02;2.97;;;1.85;;
41923;SDS011;27613;48.116;11.656;2023-01-01T07:59:28;7.82;;;2.08;;
41923;SDS011;27613;48.116;11.656;2023-01-01T08:01:53;2.95;;;2.03;;
41923;SDS011;27613;48.116;11.656;2023-01-01T08:04:22;3.70;;;2.30;;
41923;SDS011;27613;48.116;11.656;2023-01-01T08:06:47;2.35;;;1.83;;
41923;SDS011;27613;48.116;11.656;2023-01-01T08:09:13;4.30;;;2.17;;
41923;SDS011;27613;48.116;11.656;2023-01-01T08:11:38;3.53;;;2.15;;
41923;SDS011;27613;48.116;11.656;2023-01-01T08:14:04;2.53;;;1.80;;
41923;SDS011;27613;48.116;11.656;2023-01-01T08:16:29;2.42;;;1.80;;
41923;SDS011;27613;48.116;11.656;2023-01-01T08:18:55;4.53;;;1.80;;
41923;SDS011;27613;48.116;11.656;2023-01-01T08:21:21;2.85;;;1.80;;
41923;SDS011;27613;48.116;11.656;2023-01-01T08:23:46;3.00;;;1.60;;
41923;SDS011;27613;48.116;11.656;2023-01-01T08:26:15;1.67;;;1.27;;
41923;SDS011;27613;48.116;11.656;2023-01-01T08:28:50;2.50;;;1.40;;
41923;SDS011;27613;48.116;11.656;2023-01-01T08:31:15;3.38;;;1.88;;
41923;SDS011;27613;48.116;11.656;2023-01-01T08:33:41;2.10;;;1.52;;
41923;SDS011;27613;48.116;11.656;2023-01-01T08:36:08;1.42;;;1.05;;
41923;SDS011;27613;48.116;11.656;2023-01-01T08:38:36;2.28;;;1.48;;
41923;SDS011;27613;48.116;11.656;2023-01-01T08:41:02;2.15;;;1.40;;
41923;SDS011;27613;48.116;11.656;2023-01-01T08:43:28;2.35;;;1.40;;
41923;SDS011;27613;48.116;11.656;2023-01-01T08:45:53;1.48;;;1.17;;
41923;SDS011;27613;48.116;11.656;2023-01-01T08:48:19;1.83;;;1.25;;
41923;SDS011;27613;48.116;11.656;2023-01-01T08:50:50;3.65;;;1.85;;
41923;SDS011;27613;48.116;11.656;2023-01-01T08:53:20;1.38;;;1.10;;
41923;SDS011;27613;48.116;11.656;2023-01-01T08:55:59;2.55;;;1.67;;
41923;SDS011;27613;48.116;11.656;2023-01-01T08:58:29;1.48;;;1.23;;
41923;SDS011;27613;48.116;11.656;2023-01-01T09:00:56;2.10;;;1.05;;
41923;SDS011;27613;48.116;11.656;2023-01-01T09:03:23;6.82;;;1.60;;
41923;SDS011;27613;48.116;11.656;2023-01-01T09:05:49;1.40;;;0.98;;
41923;SDS011;27613;48.116;11.656;2023-01-01T09:08:14;2.00;;;1.23;;
41923;SDS011;27613;48.116;11.656;2023-01-01T09:10:40;4.80;;;1.23;;
41923;SDS011;27613;48.116;11.656;2023-01-01T09:13:08;1.75;;;1.10;;
41923;SDS011;27613;48.116;11.656;2023-01-01T09:15:34;1.08;;;0.85;;
41923;SDS011;27613;48.116;11.656;2023-01-01T09:17:59;1.33;;;1.10;;
41923;SDS011;27613;48.116;11.656;2023-01-01T09:20:25;1.75;;;1.15;;
41923;SDS011;27613;48.116;11.656;2023-01-01T09:22:51;1.65;;;1.10;;
41923;SDS011;27613;48.116;11.656;2023-01-01T09:25:16;1.85;;;1.30;;
41923;SDS011;27613;48.116;11.656;2023-01-01T09:27:42;2.10;;;0.93;;
41923;SDS011;27613;48.116;11.656;2023-01-01T09:30:08;4.25;;;1.40;;
41923;SDS011;27613;48.116;11.656;2023-01-01T09:32:34;1.42;;;1.15;;
41923;SDS011;27613;48.116;11.656;2023-01-01T09:34:59;1.88;;;1.23;;
41923;SDS011;27613;48.116;11.656;2023-01-01T09:37:25;1.80;;;1.17;;
41923;SDS011;27613;48.116;11.656;2023-01-01T09:39:51;2.70;;;1.88;;
41923;SDS011;27613;48.116;11.656;2023-01-01T09:47:42;2.38;;;1.52;;
41923;SDS011;27613;48.116;11.656;2023-01-01T09:50:20;2.33;;;1.52;;
41923;SDS011;27613;48.116;11.656;2023-01-01T09:53:00;5.10;;;1.33;;
41923;SDS011;27613;48.116;11.656;2023-01-01T09:55:41;1.83;;;1.17;;
41923;SDS011;27613;48.116;11.656;2023-01-01T09:58:11;2.90;;;1.80;;
41923;SDS011;27613;48.116;11.656;2023-01-01T10:00:41;2.90;;;1.70;;
41923;SDS011;27613;48.116;11.656;2023-01-01T10:20:03;1.27;;;1.00;;
41923;SDS011;27613;48.116;11.656;2023-01-01T10:22:53;2.35;;;1.25;;
41923;SDS011;27613;48.116;11.656;2023-01-01T10:25:26;2.17;;;1.20;;
41923;SDS011;27613;48.116;11.656;2023-01-01T10:28:02;2.17;;;1.40;;
41923;SDS011;27613;48.116;11.656;2023-01-01T10:30:31;2.85;;;1.48;;
41923;SDS011;27613;48.116;11.656;2023-01-01T10:32:57;2.20;;;1.25;;
41923;SDS011;27613;48.116;11.656;2023-01-01T10:35:25;2.55;;;1.00;;
41923;SDS011;27613;48.116;11.656;2023-01-01T10:37:57;2.47;;;1.30;;
41923;SDS011;27613;48.116;11.656;2023-01-01T10:40:24;1.50;;;1.20;;
41923;SDS011;27613;48.116;11.656;2023-01-01T10:42:52;2.63;;;1.45;;
41923;SDS011;27613;48.116;11.656;2023-01-01T10:45:28;2.78;;;1.40;;
41923;SDS011;27613;48.116;11.656;2023-01-01T10:48:13;1.65;;;1.05;;
41923;SDS011;27613;48.116;11.656;2023-01-01T10:56:02;2.53;;;1.40;;
41923;SDS011;27613;48.116;11.656;2023-01-01T11:01:06;1.52;;;1.00;;
41923;SDS011;27613;48.116;11.656;2023-01-01T11:06:45;1.35;;;1.20;;
41923;SDS011;27613;48.116;11.656;2023-01-01T11:09:22;2.40;;;1.40;;
41923;SDS011;27613;48.116;11.656;2023-01-01T11:11:56;1.90;;;1.20;;
41923;SDS011;27613;48.116;11.656;2023-01-01T11:14:29;2.35;;;1.30;;
41923;SDS011;27613;48.116;11.656;2023-01-01T11:17:07;2.33;;;1.10;;
41923;SDS011;27613;48.116;11.656;2023-01-01T11:19:34;1.30;;;1.00;;
41923;SDS011;27613;48.116;11.656;2023-01-01T11:22:02;2.08;;;1.35;;
41923;SDS011;27613;48.116;11.656;2023-01-01T11:24:30;1.52;;;1.10;;
41923;SDS011;27613;48.116;11.656;2023-01-01T11:29:47;3.60;;;1.10;;
41923;SDS011;27613;48.116;11.656;2023-01-01T11:32:27;2.45;;;1.38;;
41923;SDS011;27613;48.116;11.656;2023-01-01T11:34:59;2.38;;;1.10;;
41923;SDS011;27613;48.116;11.656;2023-01-01T11:37:30;0.98;;;0.80;;
41923;SDS011;27613;48.116;11.656;2023-01-01T11:39:58;1.70;;;1.15;;
41923;SDS011;27613;48.116;11.656;2023-01-01T11:42:32;1.00;;;0.90;;
41923;SDS011;27613;48.116;11.656;2023-01-01T11:45:00;7.55;;;5.75;;
41923;SDS011;27613;48.116;11.656;2023-01-01T11:47:41;1.75;;;1.20;;
41923;SDS011;27613;48.116;11.656;2023-01-01T11:50:18;2.20;;;1.30;;
41923;SDS011;27613;48.116;11.656;2023-01-01T11:52:51;1.92;;;1.13;;
41923;SDS011;27613;48.116;11.656;2023-01-01T12:00:34;1.40;;;1.10;;
41923;SDS011;27613;48.116;11.656;2023-01-01T12:03:11;2.00;;;1.10;;
41923;SDS011;27613;48.116;11.656;2023-01-01T12:05:50;1.80;;;1.23;;
41923;SDS011;27613;48.116;11.656;2023-01-01T12:08:30;17.90;;;15.60;;
41923;SDS011;27613;48.116;11.656;2023-01-01T12:10:59;2.10;;;1.30;;
41923;SDS011;27613;48.116;11.656;2023-01-01T12:13:34;14.35;;;8.50;;
41923;SDS011;27613;48.116;11.656;2023-01-01T12:16:10;2.83;;;1.70;;
41923;SDS011;27613;48.116;11.656;2023-01-01T12:18:44;3.92;;;2.00;;
41923;SDS011;27613;48.116;11.656;2023-01-01T12:23:50;11.57;;;8.30;;
41923;SDS011;27613;48.116;11.656;2023-01-01T12:26:28;12.10;;;8.77;;
41923;SDS011;27613;48.116;11.656;2023-01-01T12:29:14;7.82;;;6.13;;
41923;SDS011;27613;48.116;11.656;2023-01-01T12:31:46;11.35;;;10.27;;
41923;SDS011;27613;48.116;11.656;2023-01-01T12:34:22;2.35;;;1.25;;
41923;SDS011;27613;48.116;11.656;2023-01-01T12:42:44;1.55;;;1.02;;
41923;SDS011;27613;48.116;11.656;2023-01-01T12:54:17;5.72;;;3.53;;
41923;SDS011;27613;48.116;11.656;2023-01-01T12:59:26;2.22;;;1.35;;
41923;SDS011;27613;48.116;11.656;2023-01-01T13:01:56;1.83;;;1.50;;
41923;SDS011;27613;48.116;11.656;2023-01-01T13:04:24;3.10;;;2.50;;
41923;SDS011;27613;48.116;11.656;2023-01-01T13:06:52;1.98;;;1.15;;
41923;SDS011;27613;48.116;11.656;2023-01-01T13:09:25;4.95;;;2.28;;
41923;SDS011;27613;48.116;11.656;2023-01-01T13:11:56;3.30;;;2.30;;
41923;SDS011;27613;48.116;11.656;2023-01-01T13:14:40;4.80;;;2.53;;
41923;SDS011;27613;48.116;11.656;2023-01-01T13:17:28;1.58;;;0.98;;
41923;SDS011;27613;48.116;11.656;2023-01-01T13:19:59;2.83;;;1.83;;
41923;SDS011;27613;48.116;11.656;2023-01-01T13:22:41;1.27;;;1.00;;
41923;SDS011;27613;48.116;11.656;2023-01-01T13:38:49;1.88;;;1.40;;
41923;SDS011;27613;48.116;11.656;2023-01-01T13:43:51;2.25;;;1.30;;
41923;SDS011;27613;48.116;11.656;2023-01-01T13:46:18;1.67;;;1.05;;
41923;SDS011;27613;48.116;11.656;2023-01-01T13:51:50;1.30;;;0.93;;
41923;SDS011;27613;48.116;11.656;2023-01-01T14:00:22;1.67;;;1.10;;
41923;SDS011;27613;48.116;11.656;2023-01-01T14:03:22;2.53;;;1.27;;
41923;SDS011;27613;48.116;11.656;2023-01-01T14:05:42;2.72;;;1.35;;
41923;SDS011;27613;48.116;11.656;2023-01-01T14:08:34;2.20;;;1.40;;
41923;SDS011;27613;48.116;11.656;2023-01-01T14:11:02;3.22;;;1.20;;
41923;SDS011;27613;48.116;11.656;2023-01-01T14:13:41;2.15;;;1.20;;
41923;SDS011;27613;48.116;11.656;2023-01-01T14:16:07;2.47;;;1.33;;
41923;SDS011;27613;48.116;11.656;2023-01-01T14:18:38;3.22;;;1.40;;
41923;SDS011;27613;48.116;11.656;2023-01-01T14:21:22;2.53;;;1.30;;
41923;SDS011;27613;48.116;11.656;2023-01-01T14:23:55;2.33;;;1.30;;
41923;SDS011;27613;48.116;11.656;2023-01-01T14:26:29;2.00;;;1.40;;
41923;SDS011;27613;48.116;11.656;2023-01-01T14:29:00;3.72;;;2.15;;
41923;SDS011;27613;48.116;11.656;2023-01-01T14:31:38;5.30;;;3.00;;
41923;SDS011;27613;48.116;11.656;2023-01-01T14:34:23;2.88;;;1.80;;
41923;SDS011;27613;48.116;11.656;2023-01-01T14:36:55;2.17;;;1.70;;
41923;SDS011;27613;48.116;11.656;2023-01-01T14:41:52;2.20;;;1.55;;
41923;SDS011;27613;48.116;11.656;2023-01-01T14:44:22;2.47;;;1.50;;
41923;SDS011;27613;48.116;11.656;2023-01-01T14:49:27;2.45;;;1.65;;
41923;SDS011;27613;48.116;11.656;2023-01-01T14:51:57;3.33;;;1.92;;
41923;SDS011;27613;48.116;11.656;2023-01-01T14:54:35;3.67;;;1.90;;
41923;SDS011;27613;48.116;11.656;2023-01-01T14:57:08;3.15;;;1.77;;
41923;SDS011;27613;48.116;11.656;2023-01-01T14:59:44;3.30;;;2.08;;
41923;SDS011;27613;48.116;11.656;2023-01-01T15:02:12;4.28;;;2.20;;
41923;SDS011;27613;48.116;11.656;2023-01-01T15:04:44;4.13;;;2.08;;
41923;SDS011;27613;48.116;11.656;2023-01-01T15:07:20;3.45;;;2.33;;
41923;SDS011;27613;48.116;11.656;2023-01-01T15:09:48;4.65;;;2.17;;
41923;SDS011;27613;48.116;11.656;2023-01-01T15:12:15;2.92;;;1.90;;
41923;SDS011;27613;48.116;11.656;2023-01-01T15:14:44;3.67;;;1.77;;
41923;SDS011;27613;48.116;11.656;2023-01-01T15:17:11;3.72;;;2.10;;
41923;SDS011;27613;48.116;11.656;2023-01-01T15:19:39;4.97;;;2.35;;
41923;SDS011;27613;48.116;11.656;2023-01-01T15:24:51;14.13;;;10.07;;
41923;SDS011;27613;48.116;11.656;2023-01-01T15:27:23;8.27;;;5.97;;
41923;SDS011;27613;48.116;11.656;2023-01-01T15:29:51;3.65;;;2.85;;
41923;SDS011;27613;48.116;11.656;2023-01-01T15:32:36;3.78;;;2.47;;
41923;SDS011;27613;48.116;11.656;2023-01-01T15:37:47;5.40;;;3.08;;
41923;SDS011;27613;48.116;11.656;2023-01-01T15:45:26;5.65;;;3.28;;
41923;SDS011;27613;48.116;11.656;2023-01-01T15:47:57;4.63;;;2.92;;
41923;SDS011;27613;48.116;11.656;2023-01-01T15:53:10;4.07;;;2.90;;
41923;SDS011;27613;48.116;11.656;2023-01-01T15:56:08;5.15;;;3.42;;
41923;SDS011;27613;48.116;11.656;2023-01-01T16:01:06;5.20;;;3.50;;
41923;SDS011;27613;48.116;11.656;2023-01-01T16:03:35;5.55;;;4.20;;
41923;SDS011;27613;48.116;11.656;2023-01-01T16:06:03;6.35;;;4.22;;
41923;SDS011;27613;48.116;11.656;2023-01-01T16:08:29;5.93;;;4.55;;
41923;SDS011;27613;48.116;11.656;2023-01-01T16:10:55;7.03;;;4.05;;
41923;SDS011;27613;48.116;11.656;2023-01-01T16:13:20;7.95;;;4.50;;
41923;SDS011;27613;48.116;11.656;2023-01-01T16:15:50;11.68;;;7.97;;
41923;SDS011;27613;48.116;11.656;2023-01-01T16:18:27;15.65;;;10.23;;
41923;SDS011;27613;48.116;11.656;2023-01-01T16:21:01;11.82;;;5.63;;
41923;SDS011;27613;48.116;11.656;2023-01-01T16:23:28;7.40;;;4.45;;
41923;SDS011;27613;48.116;11.656;2023-01-01T16:25:54;8.18;;;5.03;;
41923;SDS011;27613;48.116;11.656;2023-01-01T16:28:20;8.98;;;6.03;;
41923;SDS011;27613;48.116;11.656;2023-01-01T16:30:46;12.20;;;6.65;;
41923;SDS011;27613;48.116;11.656;2023-01-01T16:33:16;6.88;;;5.18;;
41923;SDS011;27613;48.116;11.656;2023-01-01T16:35:43;7.60;;;4.85;;
41923;SDS011;27613;48.116;11.656;2023-01-01T16:38:09;7.55;;;3.95;;
41923;SDS011;27613;48.116;11.656;2023-01-01T16:40:35;6.38;;;3.42;;
41923;SDS011;27613;48.116;11.656;2023-01-01T16:43:01;5.60;;;3.65;;
41923;SDS011;27613;48.116;11.656;2023-01-01T16:45:29;5.35;;;3.17;;
41923;SDS011;27613;48.116;11.656;2023-01-01T16:47:55;5.72;;;4.13;;
41923;SDS011;27613;48.116;11.656;2023-01-01T16:50:21;8.77;;;4.13;;
41923;SDS011;27613;48.116;11.656;2023-01-01T16:52:46;8.40;;;3.90;;
41923;SDS011;27613;48.116;11.656;2023-01-01T16:55:12;5.20;;;4.03;;
41923;SDS011;27613;48.116;11.656;2023-01-01T16:57:38;7.50;;;4.40;;
41923;SDS011;27613;48.116;11.656;2023-01-01T17:00:05;7.45;;;4.90;;